Main page
METAR-TAF:

METAR-TAF

Airports :

Bückeburg Air Base

Bückeburg, Germany

latitude: 52-17N, longitude: 009-05E, elevation: 70 m

Current weather observation

The report was made 1 hour and 1 minutes ago, at 04:20 UTC
Calm wind
Temperature 14°C
Humidity 94%
Pressure 1016 hPa
Visibility 10 km or more
Few clouds at a height of 5000 ft

METAR: ETHB 230420Z 00000KT 9999 FEW050 14/13 Q1016 BLU+BLU+

Time: 07:21 (05:21 UTC)

Forecast

The report was made 1 hour and 1 minutes ago, at 04:20 UTC
Forecast valid from 23 at 05 UTC to 23 at 14 UTC
Wind 5 kt from the Northwest
Visibility 10 km or more
Few clouds at a height of 5000 ft

TAF: ETHB 230420Z 2305/2314 32005KT 9999 NSW FEW050

Weather observations and forecasts of more than 4000 airports (METAR and TAF reports).

The available stations are represented by yellow and red dots on the map.

Hover mouse over dot to see the name of the station.

Then click to see weather observations and forecasts.

To change the map : click on the green buttons with a black cross to zoom in, on the green button with a dash to zoom out, or on the green arrows for adjacent maps.


METAR-TAF: